createdAt,value
2018-03-16T00:00:38.949Z,101.83
2018-03-16T00:03:07.379Z,103.47
2018-03-16T00:05:34.988Z,103.87
2018-03-16T00:08:03.347Z,105.17
2018-03-16T00:10:31.760Z,95.47
2018-03-16T00:12:59.351Z,102.10
2018-03-16T00:15:26.931Z,93.47
2018-03-16T00:17:54.515Z,91.77
2018-03-16T00:20:22.857Z,96.50
2018-03-16T00:22:50.508Z,99.67
2018-03-16T00:25:18.136Z,102.80
2018-03-16T00:27:46.449Z,97.60
2018-03-16T00:30:14.080Z,101.90
2018-03-16T00:32:41.830Z,103.00
2018-03-16T00:35:09.490Z,97.23
2018-03-16T00:37:37.886Z,106.77
2018-03-16T00:40:05.514Z,97.87
2018-03-16T00:42:33.906Z,115.50
2018-03-16T00:45:02.308Z,98.73
2018-03-16T00:47:29.873Z,97.43
2018-03-16T00:49:57.460Z,97.43
2018-03-16T00:52:25.035Z,102.17
2018-03-16T00:54:52.660Z,102.17
2018-03-16T00:57:20.257Z,110.10
2018-03-16T00:59:48.680Z,111.97
2018-03-16T01:02:17.039Z,102.20
2018-03-16T01:04:44.627Z,102.53
2018-03-16T01:07:12.300Z,110.27
2018-03-16T01:09:39.901Z,107.87
2018-03-16T01:12:07.520Z,99.70
2018-03-16T01:14:35.126Z,101.13
2018-03-16T01:17:02.725Z,105.50
2018-03-16T01:19:30.359Z,106.07
2018-03-16T01:21:57.936Z,102.77
2018-03-16T01:24:26.304Z,108.70
2018-03-16T01:26:54.661Z,106.07
2018-03-16T01:29:22.280Z,99.53
2018-03-16T01:31:49.863Z,108.63
2018-03-16T01:34:17.449Z,113.07
2018-03-16T01:36:45.049Z,106.23
2018-03-16T01:39:12.678Z,109.73
2018-03-16T01:41:40.343Z,100.23
2018-03-16T01:44:07.941Z,109.50
2018-03-16T01:46:35.549Z,113.70
2018-03-16T01:49:03.124Z,106.80
2018-03-16T01:51:30.786Z,108.67
2018-03-16T01:53:58.402Z,100.23
2018-03-16T01:56:25.995Z,110.17
2018-03-16T01:58:53.611Z,104.77
2018-03-16T02:01:21.163Z,104.47
2018-03-16T02:03:48.726Z,108.40
2018-03-16T02:06:16.319Z,111.83
2018-03-16T02:08:43.886Z,104.37
2018-03-16T02:11:11.471Z,111.43
2018-03-16T02:13:39.062Z,96.00
2018-03-16T02:16:06.664Z,109.20
2018-03-16T02:18:34.236Z,99.90
2018-03-16T02:21:01.885Z,108.70
2018-03-16T02:23:29.455Z,107.00
2018-03-16T02:25:57.079Z,106.00
2018-03-16T02:28:24.696Z,105.77
2018-03-16T02:30:52.288Z,113.30
2018-03-16T02:33:19.889Z,110.23
2018-03-16T02:35:47.489Z,107.37
2018-03-16T02:38:15.857Z,101.87
2018-03-16T02:40:43.516Z,116.47
2018-03-16T02:43:11.064Z,114.40
2018-03-16T02:45:38.652Z,117.50
2018-03-16T02:48:06.988Z,109.40
2018-03-16T02:50:34.585Z,110.13
2018-03-16T02:53:02.157Z,117.23
2018-03-16T02:55:29.734Z,115.07
2018-03-16T02:57:57.343Z,121.87
2018-03-16T03:00:24.915Z,118.33
2018-03-16T03:02:52.533Z,119.53
2018-03-16T03:05:20.151Z,120.93
2018-03-16T03:07:47.784Z,112.10
2018-03-16T03:10:15.355Z,116.47
2018-03-16T03:12:42.917Z,119.90
2018-03-16T03:15:10.509Z,114.20
2018-03-16T03:17:38.078Z,112.97
2018-03-16T03:20:05.631Z,110.17
2018-03-16T03:22:33.220Z,116.80
2018-03-16T03:25:00.781Z,116.43
2018-03-16T03:27:28.399Z,125.50
2018-03-16T03:29:56.728Z,126.37
2018-03-16T03:32:24.287Z,121.43
2018-03-16T03:34:51.861Z,111.13
2018-03-16T03:37:19.427Z,121.40
2018-03-16T03:39:47.021Z,119.47
2018-03-16T03:42:15.356Z,115.70
2018-03-16T03:44:42.921Z,112.37
2018-03-16T03:47:10.493Z,121.17
2018-03-16T03:49:38.053Z,116.40
2018-03-16T03:52:05.636Z,120.90
2018-03-16T03:54:33.958Z,118.30
2018-03-16T03:57:01.530Z,121.03
2018-03-16T03:59:29.128Z,118.97
2018-03-16T04:01:58.336Z,118.90
2018-03-16T04:04:26.660Z,120.90
2018-03-16T04:06:54.252Z,122.23
2018-03-16T04:09:21.836Z,132.63
2018-03-16T04:11:50.190Z,127.90
2018-03-16T04:14:17.805Z,135.20
2018-03-16T04:16:45.369Z,131.50
2018-03-16T04:19:12.950Z,129.77
2018-03-16T04:21:40.511Z,125.30
2018-03-16T04:24:08.100Z,128.77
2018-03-16T04:26:35.684Z,131.97
2018-03-16T04:29:04.020Z,121.70
2018-03-16T04:31:31.616Z,131.17
2018-03-16T04:33:59.936Z,119.00
2018-03-16T04:36:27.492Z,120.20
2018-03-16T04:38:55.090Z,125.70
2018-03-16T04:41:22.661Z,117.00
2018-03-16T04:43:50.242Z,116.87
2018-03-16T04:46:17.840Z,120.23
2018-03-16T04:48:45.416Z,122.83
2018-03-16T04:51:12.999Z,124.27
2018-03-16T04:53:40.573Z,119.50
2018-03-16T04:56:08.901Z,115.67
2018-03-16T04:58:36.505Z,121.43
2018-03-16T05:01:04.945Z,115.10
2018-03-16T05:03:32.510Z,113.47
2018-03-16T05:06:00.097Z,116.30
2018-03-16T05:08:27.664Z,112.33
2018-03-16T05:10:55.998Z,107.83
2018-03-16T05:13:23.581Z,108.57
2018-03-16T05:15:51.149Z,124.27
2018-03-16T05:18:19.521Z,106.87
2018-03-16T05:20:47.089Z,108.30
2018-03-16T05:23:14.676Z,118.80
2018-03-16T05:25:43.009Z,109.77
2018-03-16T05:28:10.614Z,101.03
2018-03-16T05:30:38.222Z,105.17
2018-03-16T05:33:05.789Z,106.00
2018-03-16T05:35:34.132Z,108.17
2018-03-16T05:38:01.722Z,98.77
2018-03-16T05:40:29.321Z,102.77
2018-03-16T05:42:57.676Z,108.10
2018-03-16T05:45:25.250Z,101.77
2018-03-16T05:47:52.821Z,100.00
2018-03-16T05:50:20.413Z,102.07
2018-03-16T05:52:48.018Z,97.60
2018-03-16T05:55:15.581Z,104.60
2018-03-16T05:57:43.144Z,97.23
2018-03-16T06:00:10.723Z,89.27
2018-03-16T06:02:39.053Z,89.57
2018-03-16T06:05:06.622Z,89.77
2018-03-16T06:07:34.234Z,88.87
2018-03-16T06:10:01.808Z,83.87
2018-03-16T06:12:29.367Z,77.90
2018-03-16T06:14:56.950Z,83.57
2018-03-16T06:17:24.508Z,85.13
2018-03-16T06:19:52.068Z,72.43
2018-03-16T06:22:19.648Z,72.00
2018-03-16T06:24:47.976Z,81.43
2018-03-16T06:27:16.333Z,81.77
2018-03-16T06:29:43.893Z,67.20
2018-03-16T06:32:11.446Z,73.20
2018-03-16T06:34:39.040Z,71.73
2018-03-16T06:37:07.355Z,73.23
2018-03-16T06:39:34.911Z,71.43
2018-03-16T06:42:02.492Z,78.57
2018-03-16T06:44:30.051Z,68.40
2018-03-16T06:46:57.632Z,68.50
2018-03-16T06:49:25.233Z,73.43
2018-03-16T06:51:52.854Z,60.53
2018-03-16T06:54:21.187Z,66.10
2018-03-16T06:56:48.753Z,60.57
2018-03-16T06:59:16.311Z,61.40
2018-03-16T07:01:43.896Z,64.03
2018-03-16T07:04:11.501Z,58.60
2018-03-16T07:06:39.061Z,63.13
2018-03-16T07:09:06.652Z,59.60
2018-03-16T07:11:34.200Z,60.00
2018-03-16T07:14:01.770Z,63.83
2018-03-16T07:16:29.349Z,56.80
2018-03-16T07:18:56.944Z,60.80
2018-03-16T07:21:25.269Z,66.63
2018-03-16T07:23:52.860Z,63.00
2018-03-16T07:26:20.414Z,62.80
2018-03-16T07:28:47.977Z,65.63
2018-03-16T07:31:15.560Z,64.00
2018-03-16T07:33:43.156Z,61.20
2018-03-16T07:36:10.715Z,74.40
2018-03-16T07:38:38.286Z,59.13
2018-03-16T07:41:05.858Z,68.43
2018-03-16T07:43:33.408Z,58.33
2018-03-16T07:46:03.615Z,56.20
2018-03-16T07:48:31.181Z,71.30
2018-03-16T07:50:58.772Z,62.17
2018-03-16T07:53:26.339Z,72.50
2018-03-16T07:55:53.900Z,67.13
2018-03-16T07:58:21.472Z,65.50
2018-03-16T08:00:49.033Z,62.13
2018-03-16T08:03:17.439Z,59.60
2018-03-16T08:05:45.765Z,57.87
2018-03-16T08:08:13.325Z,63.83
2018-03-16T08:10:40.899Z,58.00
2018-03-16T08:13:08.472Z,60.00
2018-03-16T08:15:36.058Z,55.60
2018-03-16T08:18:04.393Z,57.80
2018-03-16T08:20:32.022Z,58.80
2018-03-16T08:22:59.576Z,54.27
2018-03-16T08:25:27.145Z,60.80
2018-03-16T08:27:54.731Z,56.87
2018-03-16T08:30:22.288Z,55.57
2018-03-16T08:32:49.874Z,59.43
2018-03-16T08:35:17.524Z,52.90
2018-03-16T08:37:45.116Z,59.87
2018-03-16T08:40:13.457Z,52.37
2018-03-16T08:42:41.033Z,56.23
2018-03-16T08:45:08.602Z,55.50
2018-03-16T08:47:36.184Z,53.00
2018-03-16T08:50:03.756Z,61.13
2018-03-16T08:52:31.322Z,57.37
2018-03-16T08:54:58.906Z,60.80
2018-03-16T08:57:26.489Z,64.27
2018-03-16T08:59:54.059Z,62.47
2018-03-16T09:02:21.624Z,60.20
2018-03-16T09:04:49.988Z,59.90
2018-03-16T09:07:17.576Z,60.80
2018-03-16T09:09:45.892Z,62.97
2018-03-16T09:12:13.456Z,64.93
2018-03-16T09:14:41.037Z,68.67
2018-03-16T09:17:08.592Z,65.20
2018-03-16T09:19:36.161Z,60.73
2018-03-16T09:22:03.786Z,64.80
2018-03-16T09:24:31.340Z,63.57
2018-03-16T09:26:58.898Z,55.70
2018-03-16T09:29:26.478Z,56.10
2018-03-16T09:31:54.041Z,58.27
2018-03-16T09:34:21.640Z,63.13
2018-03-16T09:36:49.207Z,59.20
2018-03-16T09:39:16.796Z,56.90
2018-03-16T09:41:45.118Z,52.97
2018-03-16T09:44:12.701Z,58.83
2018-03-16T09:46:40.294Z,52.20
2018-03-16T09:49:08.609Z,52.07
2018-03-16T09:51:36.184Z,46.83
2018-03-16T09:54:03.744Z,48.00
2018-03-16T09:56:31.337Z,45.00
2018-03-16T09:58:59.693Z,49.67
2018-03-16T10:01:27.254Z,45.27
2018-03-16T10:03:54.848Z,47.13
2018-03-16T10:06:23.169Z,53.43
2018-03-16T10:08:50.778Z,49.10
2018-03-16T10:11:18.388Z,45.40
2018-03-16T10:13:45.938Z,51.77
2018-03-16T10:16:13.517Z,43.50
2018-03-16T10:18:41.073Z,39.67
2018-03-16T10:21:08.648Z,39.90
2018-03-16T10:23:36.203Z,42.20
2018-03-16T10:26:03.763Z,44.03
2018-03-16T10:28:31.333Z,44.23
2018-03-16T10:30:58.893Z,39.57
2018-03-16T10:33:26.476Z,40.13
2018-03-16T10:35:54.074Z,37.93
2018-03-16T10:38:21.638Z,41.97
2018-03-16T10:40:49.336Z,43.57
2018-03-16T10:43:16.928Z,42.97
2018-03-16T10:45:44.500Z,46.40
2018-03-16T10:48:12.056Z,51.30
2018-03-16T10:50:40.427Z,47.13
2018-03-16T10:53:07.986Z,47.53
2018-03-16T10:55:35.539Z,45.20
2018-03-16T10:58:03.128Z,48.10
2018-03-16T11:00:37.047Z,43.33
2018-03-16T11:03:07.404Z,42.33
2018-03-16T11:05:40.585Z,44.77
2018-03-16T11:08:08.170Z,42.30
2018-03-16T11:10:35.723Z,40.83
2018-03-16T11:13:03.288Z,49.93
2018-03-16T11:15:30.870Z,44.67
2018-03-16T11:17:58.433Z,48.87
2018-03-16T11:20:26.021Z,43.63
2018-03-16T11:22:53.576Z,42.47
2018-03-16T11:25:21.892Z,40.90
2018-03-16T11:27:49.473Z,37.97
2018-03-16T11:30:17.032Z,39.20
2018-03-16T11:32:44.592Z,35.53
2018-03-16T11:35:12.173Z,34.93
2018-03-16T11:37:39.724Z,36.67
2018-03-16T11:40:07.283Z,45.50
2018-03-16T11:42:34.865Z,36.60
2018-03-16T11:45:03.272Z,43.50
2018-03-16T11:47:30.869Z,39.70
2018-03-16T11:49:58.446Z,34.90
2018-03-16T11:52:26.005Z,36.43
2018-03-16T11:54:53.584Z,40.30
2018-03-16T11:57:21.930Z,38.00
2018-03-16T11:59:49.480Z,39.97
2018-03-16T12:02:17.068Z,37.33
2018-03-16T12:04:44.621Z,43.67
2018-03-16T12:07:12.180Z,36.83
2018-03-16T12:09:39.748Z,43.90
2018-03-16T12:12:07.324Z,37.83
2018-03-16T12:14:35.686Z,38.10
2018-03-16T12:17:03.237Z,41.57
2018-03-16T12:19:30.797Z,35.60
2018-03-16T12:21:58.775Z,42.00
2018-03-16T12:24:26.434Z,40.00
2018-03-16T12:26:54.060Z,37.33
2018-03-16T12:29:21.617Z,41.03
2018-03-16T12:31:49.181Z,40.27
2018-03-16T12:34:16.756Z,38.93
2018-03-16T12:36:44.335Z,40.20
2018-03-16T12:39:11.908Z,36.03
2018-03-16T12:41:39.484Z,38.10
2018-03-16T12:44:07.834Z,42.23
2018-03-16T12:46:35.387Z,31.70
2018-03-16T12:49:02.976Z,34.33
2018-03-16T12:51:30.562Z,31.33
2018-03-16T12:53:58.133Z,31.00
2018-03-16T12:56:25.715Z,34.60
2018-03-16T12:58:53.274Z,34.10
2018-03-16T13:01:20.821Z,32.40
2018-03-16T13:03:48.409Z,34.13
2018-03-16T13:06:15.969Z,33.07
2018-03-16T13:08:43.525Z,46.23
2018-03-16T13:11:11.104Z,38.07
2018-03-16T13:13:38.652Z,35.13
2018-03-16T13:16:06.212Z,36.57
2018-03-16T13:18:33.792Z,32.40
2018-03-16T13:21:01.355Z,33.53
2018-03-16T13:23:29.706Z,27.83
2018-03-16T13:25:58.025Z,35.70
2018-03-16T13:28:26.378Z,32.33
2018-03-16T13:30:53.973Z,36.43
2018-03-16T13:33:22.283Z,33.60
2018-03-16T13:35:49.864Z,36.23
2018-03-16T13:38:17.416Z,39.20
2018-03-16T13:40:44.972Z,35.80
2018-03-16T13:43:12.550Z,34.80
2018-03-16T13:45:40.108Z,39.23
2018-03-16T13:48:07.684Z,45.10
2018-03-16T13:50:35.274Z,43.23
2018-03-16T13:53:02.836Z,48.50
2018-03-16T13:55:30.389Z,43.57
2018-03-16T13:57:58.741Z,39.57
2018-03-16T14:00:26.297Z,38.77
2018-03-16T14:02:53.890Z,46.70
2018-03-16T14:05:22.209Z,43.20
2018-03-16T14:07:50.533Z,41.80
2018-03-16T14:10:18.888Z,46.27
2018-03-16T14:12:46.450Z,44.83
2018-03-16T14:15:14.009Z,42.90
2018-03-16T14:17:41.579Z,49.30
2018-03-16T14:20:09.174Z,44.47
2018-03-16T14:22:36.729Z,46.33
2018-03-16T14:25:04.289Z,39.23
2018-03-16T14:27:31.859Z,45.10
2018-03-16T14:29:59.423Z,49.00
2018-03-16T14:32:26.992Z,43.03
2018-03-16T14:34:54.550Z,46.30
2018-03-16T14:37:22.154Z,49.37
2018-03-16T14:39:49.725Z,48.67
2018-03-16T14:42:18.092Z,48.77
2018-03-16T14:44:45.683Z,49.50
2018-03-16T14:47:13.997Z,47.70
2018-03-16T14:49:41.570Z,46.60
2018-03-16T14:52:09.120Z,50.57
2018-03-16T14:54:36.692Z,44.90
2018-03-16T14:57:04.329Z,47.60
2018-03-16T14:59:31.895Z,51.87
2018-03-16T15:01:59.492Z,50.10
2018-03-16T15:04:27.041Z,45.80
2018-03-16T15:06:54.601Z,49.50
2018-03-16T15:09:22.176Z,53.77
2018-03-16T15:11:49.756Z,53.13
2018-03-16T15:14:18.075Z,44.40
2018-03-16T15:16:45.624Z,47.90
2018-03-16T15:19:13.216Z,52.27
2018-03-16T15:21:40.842Z,46.63
2018-03-16T15:24:08.344Z,42.17
2018-03-16T15:26:35.920Z,45.50
2018-03-16T15:29:04.252Z,58.30
2018-03-16T15:31:31.839Z,40.77
2018-03-16T15:33:59.398Z,44.97
2018-03-16T15:36:26.956Z,43.10
2018-03-16T15:38:54.540Z,47.73
2018-03-16T15:41:22.908Z,41.37
2018-03-16T15:43:50.629Z,40.40
2018-03-16T15:46:18.180Z,40.23
2018-03-16T15:48:45.743Z,44.83
2018-03-16T15:51:13.331Z,37.37
2018-03-16T15:53:40.955Z,36.53
2018-03-16T15:56:08.512Z,41.07
2018-03-16T15:58:36.149Z,39.03
2018-03-16T16:01:03.678Z,45.70
2018-03-16T16:03:31.234Z,40.30
2018-03-16T16:05:58.805Z,32.27
2018-03-16T16:08:26.357Z,29.77
2018-03-16T16:10:53.936Z,34.40
2018-03-16T16:13:21.481Z,29.20
2018-03-16T16:15:49.828Z,26.63
2018-03-16T16:18:17.390Z,31.43
2018-03-16T16:20:44.964Z,28.07
2018-03-16T16:23:12.548Z,36.70
2018-03-16T16:25:40.118Z,29.23
2018-03-16T16:28:07.685Z,29.40
2018-03-16T16:30:35.277Z,28.00
2018-03-16T16:33:02.841Z,31.10
2018-03-16T16:35:31.160Z,31.33
2018-03-16T16:37:58.736Z,31.57
2018-03-16T16:40:26.309Z,27.60
2018-03-16T16:42:53.873Z,28.33
2018-03-16T16:45:21.469Z,47.23
2018-03-16T16:47:49.025Z,29.83
2018-03-16T16:50:17.369Z,28.03
2018-03-16T16:52:44.920Z,27.90
2018-03-16T16:55:12.563Z,32.23
2018-03-16T16:57:40.903Z,25.70
2018-03-16T17:00:09.248Z,31.33
2018-03-16T17:02:36.848Z,29.10
2018-03-16T17:05:04.405Z,29.47
2018-03-16T17:07:31.963Z,38.50
2018-03-16T17:10:00.366Z,31.40
2018-03-16T17:12:28.689Z,30.70
2018-03-16T17:14:56.276Z,39.00
2018-03-16T17:17:24.621Z,35.83
2018-03-16T17:19:52.189Z,27.90
2018-03-16T17:22:19.776Z,35.20
2018-03-16T17:24:47.336Z,32.60
2018-03-16T17:27:15.679Z,30.03
2018-03-16T17:29:43.472Z,31.67
2018-03-16T17:32:11.054Z,33.97
2018-03-16T17:34:39.414Z,27.90
2018-03-16T17:37:06.996Z,31.13
2018-03-16T17:39:34.557Z,32.83
2018-03-16T17:42:02.110Z,30.83
2018-03-16T17:44:30.462Z,29.60
2018-03-16T17:46:58.026Z,25.10
2018-03-16T17:49:25.589Z,29.20
2018-03-16T17:51:53.198Z,33.67
2018-03-16T17:54:20.780Z,47.80
2018-03-16T17:56:48.344Z,23.37
2018-03-16T17:59:15.910Z,28.30
2018-03-16T18:01:43.496Z,23.87
2018-03-16T18:04:11.050Z,26.90
2018-03-16T18:06:38.613Z,23.47
2018-03-16T18:09:06.184Z,27.60
2018-03-16T18:11:34.517Z,28.23
2018-03-16T18:14:02.093Z,30.70
2018-03-16T18:16:29.648Z,26.73
2018-03-16T18:18:57.221Z,25.80
2018-03-16T18:21:24.792Z,28.63
2018-03-16T18:23:53.163Z,27.37
2018-03-16T18:26:20.744Z,23.90
2018-03-16T18:28:49.125Z,26.80
2018-03-16T18:31:17.462Z,20.37
2018-03-16T18:33:45.100Z,21.90
2018-03-16T18:36:12.652Z,20.67
2018-03-16T18:38:40.213Z,18.87
2018-03-16T18:41:07.916Z,18.80
2018-03-16T18:43:35.468Z,22.53
2018-03-16T18:46:03.025Z,14.30
2018-03-16T18:48:30.636Z,19.87
2018-03-16T18:50:58.287Z,19.87
2018-03-16T18:53:26.613Z,13.17
2018-03-16T18:55:54.184Z,19.37
2018-03-16T18:58:21.769Z,14.57
2018-03-16T19:00:49.332Z,16.73
2018-03-16T19:03:16.950Z,18.63
2018-03-16T19:05:44.522Z,13.20
2018-03-16T19:08:12.123Z,20.23
2018-03-16T19:10:41.209Z,14.97
2018-03-16T19:13:08.868Z,14.90
2018-03-16T19:15:36.452Z,13.73
2018-03-16T19:18:04.822Z,12.17
2018-03-16T19:20:33.269Z,12.20
2018-03-16T19:23:00.844Z,15.17
2018-03-16T19:25:28.410Z,15.60
2018-03-16T19:27:56.763Z,12.30
2018-03-16T19:30:24.335Z,14.63
2018-03-16T19:32:51.913Z,16.63
2018-03-16T19:35:19.508Z,15.20
2018-03-16T19:37:47.104Z,14.43
2018-03-16T19:40:14.679Z,14.63
2018-03-16T19:42:42.304Z,13.80
2018-03-16T19:45:09.878Z,13.90
2018-03-16T19:47:37.452Z,13.40
2018-03-16T19:50:05.030Z,15.37
2018-03-16T19:52:32.593Z,14.63
2018-03-16T19:55:00.192Z,16.70
2018-03-16T19:57:27.741Z,31.73
2018-03-16T19:59:56.056Z,15.87
2018-03-16T20:02:23.636Z,15.83
2018-03-16T20:04:51.192Z,14.73
2018-03-16T20:07:18.842Z,13.20
2018-03-16T20:09:46.423Z,13.70
2018-03-16T20:12:13.977Z,14.97
2018-03-16T20:14:41.554Z,16.27
2018-03-16T20:17:09.158Z,14.23
2018-03-16T20:19:37.484Z,17.50
2018-03-16T20:22:05.828Z,19.83
2018-03-16T20:24:33.388Z,15.23
2018-03-16T20:27:01.741Z,20.90
2018-03-16T20:29:29.309Z,17.37
2018-03-16T20:31:56.880Z,23.97
2018-03-16T20:34:24.625Z,17.13
2018-03-16T20:36:52.204Z,15.40
2018-03-16T20:39:19.810Z,24.73
2018-03-16T20:41:47.409Z,17.97
2018-03-16T20:44:14.966Z,14.93
2018-03-16T20:46:42.521Z,15.97
2018-03-16T20:49:10.099Z,14.30
2018-03-16T20:51:37.656Z,15.37
2018-03-16T20:54:05.240Z,25.53
2018-03-16T20:56:32.793Z,45.30
2018-03-16T20:59:00.364Z,61.30
2018-03-16T21:01:27.939Z,26.27
2018-03-16T21:03:56.327Z,14.50
2018-03-16T21:06:24.640Z,16.70
2018-03-16T21:08:52.225Z,17.80
2018-03-16T21:11:19.823Z,14.57
2018-03-16T21:13:48.148Z,21.17
2018-03-16T21:16:15.724Z,25.20
2018-03-16T21:18:43.492Z,32.23
2018-03-16T21:21:11.049Z,23.80
2018-03-16T21:23:38.609Z,15.50
2018-03-16T21:26:06.210Z,20.37
2018-03-16T21:28:33.764Z,15.37
2018-03-16T21:31:02.118Z,15.67
2018-03-16T21:33:29.721Z,13.80
2018-03-16T21:35:57.320Z,14.47
2018-03-16T21:38:24.887Z,10.60
2018-03-16T21:40:52.444Z,16.43
2018-03-16T21:43:20.012Z,13.33
2018-03-16T21:45:47.584Z,13.83
2018-03-16T21:48:15.928Z,13.83
2018-03-16T21:50:43.489Z,13.30
2018-03-16T21:53:11.064Z,16.57
2018-03-16T21:55:38.628Z,21.17
2018-03-16T21:58:06.226Z,14.10
2018-03-16T22:00:33.840Z,13.60
2018-03-16T22:03:01.400Z,12.10
2018-03-16T22:05:28.997Z,13.43
2018-03-16T22:07:57.308Z,14.33
2018-03-16T22:10:24.866Z,15.30
2018-03-16T22:12:52.444Z,12.23
2018-03-16T22:15:20.776Z,11.50
2018-03-16T22:17:49.156Z,12.43
2018-03-16T22:20:16.776Z,10.07
2018-03-16T22:22:44.378Z,12.30
2018-03-16T22:25:11.939Z,14.50
2018-03-16T22:27:39.493Z,18.87
2018-03-16T22:30:07.840Z,22.93
2018-03-16T22:32:35.491Z,10.57
2018-03-16T22:35:03.062Z,15.60
2018-03-16T22:37:30.653Z,12.90
2018-03-16T22:39:59.215Z,14.30
2018-03-16T22:42:26.797Z,12.20
2018-03-16T22:44:55.127Z,12.70
2018-03-16T22:47:23.020Z,16.53
2018-03-16T22:49:50.590Z,12.93
2018-03-16T22:52:18.947Z,12.90
2018-03-16T22:54:46.516Z,15.53
2018-03-16T22:57:14.104Z,13.13
2018-03-16T22:59:42.441Z,10.57
2018-03-16T23:02:10.013Z,12.00
2018-03-16T23:04:37.597Z,9.30
2018-03-16T23:07:05.936Z,8.43
2018-03-16T23:09:33.519Z,16.00
2018-03-16T23:12:01.918Z,10.53
2018-03-16T23:14:29.505Z,11.70
2018-03-16T23:16:57.129Z,11.33
2018-03-16T23:19:24.700Z,12.33
2018-03-16T23:21:52.291Z,11.20
2018-03-16T23:24:19.897Z,10.83
2018-03-16T23:26:47.440Z,19.97
2018-03-16T23:29:15.005Z,12.40
2018-03-16T23:31:42.588Z,13.60
2018-03-16T23:34:10.914Z,9.00
2018-03-16T23:36:38.546Z,10.37
2018-03-16T23:39:06.837Z,9.60
2018-03-16T23:41:34.431Z,9.60
2018-03-16T23:44:02.036Z,8.97
2018-03-16T23:46:30.392Z,8.27
2018-03-16T23:48:57.944Z,12.20
2018-03-16T23:51:25.534Z,12.80
2018-03-16T23:53:53.183Z,10.60
2018-03-16T23:56:20.767Z,13.80
2018-03-16T23:58:48.338Z,10.67
